Terminal Aerodrome Forecast
Issued by NWS Bismarck, ND

Home | Current Version | Previous Version | Text Only | Print | Product List | Glossary On
Versions: 1 2 3 4 5 6 7 8 9 10 11 12 13 14
000
FTUS43 KBIS 121100
TAFISN
TAF
KISN 121120Z 1212/1312 27008KT P6SM SCT080
     FM121900 31016KT P6SM SCT080
     FM130200 35007KT P6SM SCT070=

USA.gov is the U.S. government's official web portal to all federal, state and local government web resources and services.